createdAt,value
2023-05-04T00:01:11.646Z,15.70
2023-05-04T00:03:39.870Z,28.35
2023-05-04T00:06:10.465Z,16.27
2023-05-04T00:08:38.438Z,14.65
2023-05-04T00:11:06.252Z,13.82
2023-05-04T00:13:34.145Z,16.65
2023-05-04T00:16:02.559Z,13.40
2023-05-04T00:18:30.594Z,13.65
2023-05-04T00:20:58.428Z,16.83
2023-05-04T00:23:26.614Z,15.38
2023-05-04T00:25:54.630Z,19.25
2023-05-04T00:28:22.620Z,17.67
2023-05-04T00:30:52.918Z,15.35
2023-05-04T00:33:22.524Z,17.05
2023-05-04T00:38:19.389Z,15.25
2023-05-04T00:40:47.291Z,14.00
2023-05-04T00:43:15.207Z,14.60
2023-05-04T00:45:43.082Z,17.50
2023-05-04T00:48:11.323Z,15.10
2023-05-04T00:50:40.422Z,17.40
2023-05-04T00:53:10.886Z,18.15
2023-05-04T00:55:40.952Z,17.17
2023-05-04T00:58:11.739Z,18.60
2023-05-04T01:00:39.804Z,20.45
2023-05-04T01:03:10.421Z,17.77
2023-05-04T01:05:47.089Z,19.67
2023-05-04T01:08:18.709Z,16.77
2023-05-04T01:10:58.414Z,16.02
2023-05-04T01:13:28.364Z,17.20
2023-05-04T01:15:56.453Z,17.35
2023-05-04T01:18:24.472Z,21.75
2023-05-04T01:20:52.460Z,22.77
2023-05-04T01:23:21.129Z,18.38
2023-05-04T01:25:59.884Z,18.95
2023-05-04T01:29:11.343Z,16.38
2023-05-04T01:31:40.581Z,16.17
2023-05-04T01:34:09.260Z,17.15
2023-05-04T01:36:37.421Z,15.65
2023-05-04T01:39:05.557Z,14.85
2023-05-04T01:41:34.677Z,13.90
2023-05-04T01:44:04.049Z,14.52
2023-05-04T01:46:31.998Z,18.15
2023-05-04T01:49:01.044Z,21.13
2023-05-04T01:51:28.951Z,27.20
2023-05-04T01:53:58.146Z,13.80
2023-05-04T01:56:26.358Z,13.02
2023-05-04T01:58:54.372Z,13.65
2023-05-04T02:01:22.309Z,16.08
2023-05-04T02:03:50.412Z,15.02
2023-05-04T02:06:18.583Z,11.05
2023-05-04T02:08:46.950Z,16.38
2023-05-04T02:12:09.463Z,13.13
2023-05-04T02:14:37.911Z,14.60
2023-05-04T02:17:06.751Z,13.88
2023-05-04T02:19:34.677Z,10.98
2023-05-04T02:22:02.760Z,17.23
2023-05-04T02:24:30.714Z,15.02
2023-05-04T02:26:58.899Z,14.40
2023-05-04T02:29:34.429Z,10.48
2023-05-04T02:32:02.586Z,12.65
2023-05-04T02:34:30.716Z,26.95
2023-05-04T02:36:58.999Z,13.40
2023-05-04T02:39:26.877Z,24.50
2023-05-04T02:41:55.698Z,24.05
2023-05-04T02:44:23.695Z,11.95
2023-05-04T02:46:51.650Z,9.98
2023-05-04T02:49:19.630Z,10.75
2023-05-04T02:54:55.605Z,8.30
2023-05-04T02:57:23.696Z,7.03
2023-05-04T02:59:51.603Z,7.43
2023-05-04T03:02:19.594Z,9.82
2023-05-04T03:04:47.705Z,9.82
2023-05-04T03:07:15.840Z,10.48
2023-05-04T03:09:45.971Z,9.10
2023-05-04T03:12:15.950Z,8.02
2023-05-04T03:14:43.948Z,8.88
2023-05-04T03:17:12.404Z,8.65
2023-05-04T03:19:40.732Z,13.00
2023-05-04T03:22:10.334Z,20.50
2023-05-04T03:24:38.245Z,9.20
2023-05-04T03:27:06.316Z,11.02
2023-05-04T03:29:37.515Z,13.35
2023-05-04T03:32:07.102Z,17.15
2023-05-04T03:34:35.967Z,14.93
2023-05-04T03:37:06.367Z,21.65
2023-05-04T03:39:34.457Z,35.20
2023-05-04T03:42:02.848Z,8.40
2023-05-04T03:44:30.896Z,8.63
2023-05-04T03:46:58.847Z,5.75
2023-05-04T03:49:27.268Z,6.82
2023-05-04T03:51:55.449Z,13.38
2023-05-04T03:54:23.850Z,7.07
2023-05-04T03:56:54.225Z,8.85
2023-05-04T04:04:19.930Z,34.78
2023-05-04T04:06:48.078Z,20.58
2023-05-04T04:09:19.054Z,15.98
2023-05-04T04:11:47.535Z,11.20
2023-05-04T04:14:15.468Z,12.30
2023-05-04T04:16:43.592Z,14.18
2023-05-04T04:19:12.100Z,15.23
2023-05-04T04:21:40.147Z,12.30
2023-05-04T04:24:08.340Z,11.75
2023-05-04T04:26:36.378Z,9.95
2023-05-04T04:29:04.581Z,8.63
2023-05-04T04:31:32.763Z,10.18
2023-05-04T04:34:01.051Z,12.45
2023-05-04T04:36:28.934Z,11.38
2023-05-04T04:38:56.996Z,11.00
2023-05-04T04:41:25.333Z,10.65
2023-05-04T04:43:53.313Z,10.18
2023-05-04T04:46:21.193Z,8.63
2023-05-04T04:48:49.404Z,8.63
2023-05-04T04:51:17.559Z,8.10
2023-05-04T04:53:45.709Z,10.25
2023-05-04T04:56:14.071Z,9.50
2023-05-04T04:58:42.825Z,9.57
2023-05-04T05:01:10.841Z,8.77
2023-05-04T05:03:38.858Z,9.23
2023-05-04T05:06:06.824Z,9.25
2023-05-04T05:08:35.161Z,8.98
2023-05-04T05:11:04.245Z,11.82
2023-05-04T05:13:32.416Z,9.45
2023-05-04T05:16:00.519Z,15.90
2023-05-04T05:18:29.538Z,9.63
2023-05-04T05:20:58.019Z,11.18
2023-05-04T05:23:26.002Z,11.75
2023-05-04T05:25:53.995Z,11.13
2023-05-04T05:28:22.193Z,13.85
2023-05-04T05:30:52.355Z,32.10
2023-05-04T05:33:20.557Z,18.65
2023-05-04T05:35:48.394Z,13.65
2023-05-04T05:38:17.853Z,14.45
2023-05-04T05:40:45.846Z,9.65
2023-05-04T05:43:13.824Z,13.18
2023-05-04T05:45:41.888Z,9.30
2023-05-04T05:48:09.792Z,9.30
2023-05-04T05:50:38.157Z,7.80
2023-05-04T05:53:06.101Z,7.97
2023-05-04T05:55:34.184Z,8.35
2023-05-04T05:58:02.064Z,10.30
2023-05-04T06:00:30.079Z,6.85
2023-05-04T06:02:58.009Z,9.80
2023-05-04T06:05:26.104Z,10.07
2023-05-04T06:07:54.283Z,11.45
2023-05-04T06:10:22.548Z,9.63
2023-05-04T06:12:50.588Z,10.70
2023-05-04T06:15:18.880Z,9.73
2023-05-04T06:17:49.034Z,9.68
2023-05-04T06:20:17.181Z,9.75
2023-05-04T06:22:45.080Z,12.07
2023-05-04T06:25:13.524Z,10.63
2023-05-04T06:27:41.462Z,8.63
2023-05-04T06:30:10.254Z,11.98
2023-05-04T06:32:38.698Z,10.25
2023-05-04T06:35:09.292Z,8.25
2023-05-04T06:37:37.685Z,8.60
2023-05-04T06:40:07.476Z,9.88
2023-05-04T06:42:35.766Z,8.32
2023-05-04T06:45:03.887Z,7.25
2023-05-04T06:47:36.452Z,12.35
2023-05-04T06:50:12.077Z,8.18
2023-05-04T06:52:45.061Z,6.95
2023-05-04T06:55:14.035Z,7.53
2023-05-04T07:00:10.903Z,8.90
2023-05-04T07:02:38.994Z,8.57
2023-05-04T07:05:07.312Z,9.88
2023-05-04T07:07:35.448Z,15.50
2023-05-04T07:10:03.817Z,9.40
2023-05-04T07:12:32.189Z,15.93
2023-05-04T07:15:00.161Z,9.15
2023-05-04T07:17:28.526Z,8.13
2023-05-04T07:19:56.468Z,9.27
2023-05-04T07:22:24.590Z,9.68
2023-05-04T07:24:52.736Z,12.43
2023-05-04T07:27:20.692Z,10.40
2023-05-04T07:29:48.606Z,10.50
2023-05-04T07:32:17.205Z,12.13
2023-05-04T07:34:46.691Z,13.25
2023-05-04T07:37:16.206Z,9.68
2023-05-04T07:39:44.344Z,8.85
2023-05-04T07:42:12.742Z,9.15
2023-05-04T07:44:41.596Z,8.23
2023-05-04T07:47:09.546Z,10.40
2023-05-04T07:49:37.828Z,9.38
2023-05-04T07:52:06.087Z,7.57
2023-05-04T07:54:34.014Z,9.75
2023-05-04T07:57:05.069Z,15.10
2023-05-04T07:59:33.635Z,7.72
2023-05-04T08:02:01.794Z,8.13
2023-05-04T08:04:29.852Z,8.25
2023-05-04T08:06:57.762Z,8.48
2023-05-04T08:09:25.760Z,11.93
2023-05-04T08:11:53.914Z,9.43
2023-05-04T08:14:24.783Z,9.18
2023-05-04T08:16:52.767Z,8.27
2023-05-04T08:19:20.715Z,6.32
2023-05-04T08:21:48.685Z,6.97
2023-05-04T08:24:18.771Z,8.40
2023-05-04T08:26:55.564Z,6.53
2023-05-04T08:29:29.217Z,9.38
2023-05-04T08:34:27.515Z,6.60
2023-05-04T08:36:55.668Z,8.00
2023-05-04T08:39:26.211Z,8.80
2023-05-04T08:41:54.625Z,9.40
2023-05-04T08:44:23.533Z,9.82
2023-05-04T08:46:53.860Z,10.45
2023-05-04T08:49:23.543Z,11.52
2023-05-04T08:51:52.223Z,9.80
2023-05-04T08:54:21.727Z,11.57
2023-05-04T08:56:52.888Z,10.23
2023-05-04T08:59:23.325Z,8.70
2023-05-04T09:01:58.978Z,8.02
2023-05-04T09:04:29.248Z,11.50
2023-05-04T09:06:58.894Z,9.77
2023-05-04T09:09:28.992Z,11.15
2023-05-04T09:11:57.117Z,8.48
2023-05-04T09:14:33.284Z,13.73
2023-05-04T09:17:02.606Z,11.80
2023-05-04T09:19:34.921Z,10.88
2023-05-04T09:22:14.471Z,12.63
2023-05-04T09:24:42.376Z,11.55
2023-05-04T09:27:11.953Z,15.23
2023-05-04T09:29:42.640Z,17.90
2023-05-04T09:32:15.470Z,13.63
2023-05-04T09:34:54.268Z,11.10
2023-05-04T09:37:23.132Z,10.18
2023-05-04T09:39:59.012Z,11.85
2023-05-04T09:42:27.262Z,8.93
2023-05-04T09:45:06.577Z,10.55
2023-05-04T09:47:37.519Z,10.93
2023-05-04T09:50:12.217Z,11.65
2023-05-04T09:52:42.325Z,12.68
2023-05-04T09:55:18.194Z,11.57
2023-05-04T09:57:48.248Z,10.45
2023-05-04T10:00:18.223Z,11.32
2023-05-04T10:02:48.386Z,12.88
2023-05-04T10:05:18.853Z,10.35
2023-05-04T10:07:47.426Z,9.25
2023-05-04T10:10:15.967Z,11.32
2023-05-04T10:12:47.131Z,10.27
2023-05-04T10:15:17.542Z,9.13
2023-05-04T10:17:58.081Z,11.45
2023-05-04T10:20:28.635Z,18.52
2023-05-04T10:23:08.835Z,18.92
2023-05-04T10:26:05.033Z,14.23
2023-05-04T10:28:43.198Z,13.18
2023-05-04T10:31:11.640Z,11.10
2023-05-04T10:33:41.036Z,13.43
2023-05-04T10:36:10.030Z,11.07
2023-05-04T10:38:40.613Z,11.45
2023-05-04T10:41:19.112Z,35.70
2023-05-04T10:43:51.111Z,11.57
2023-05-04T10:46:23.033Z,13.25
2023-05-04T10:48:51.788Z,12.95
2023-05-04T10:51:30.156Z,11.27
2023-05-04T10:54:05.426Z,12.73
2023-05-04T10:56:33.544Z,13.55
2023-05-04T10:59:09.266Z,11.65
2023-05-04T11:01:46.744Z,12.30
2023-05-04T11:04:24.620Z,12.63
2023-05-04T11:07:08.861Z,12.30
2023-05-04T11:09:42.422Z,16.08
2023-05-04T11:12:13.465Z,13.20
2023-05-04T11:14:43.442Z,14.30
2023-05-04T11:17:27.612Z,12.27
2023-05-04T11:19:56.932Z,15.85
2023-05-04T11:22:24.826Z,14.73
2023-05-04T11:25:01.668Z,13.93
2023-05-04T11:27:30.550Z,13.80
2023-05-04T11:30:04.940Z,13.70
2023-05-04T11:32:38.571Z,14.57
2023-05-04T11:35:25.140Z,11.70
2023-05-04T11:37:53.973Z,12.65
2023-05-04T11:40:23.959Z,13.32
2023-05-04T11:42:57.230Z,12.57
2023-05-04T11:45:29.175Z,12.57
2023-05-04T11:47:58.752Z,13.43
2023-05-04T11:50:28.931Z,14.32
2023-05-04T11:53:12.254Z,14.00
2023-05-04T11:55:42.100Z,18.65
2023-05-04T11:58:11.876Z,12.68
2023-05-04T12:00:42.286Z,12.70
2023-05-04T12:03:19.104Z,17.35
2023-05-04T12:05:52.498Z,17.33
2023-05-04T12:08:35.225Z,13.65
2023-05-04T12:11:13.740Z,16.67
2023-05-04T12:13:42.971Z,12.85
2023-05-04T12:16:18.559Z,17.23
2023-05-04T12:18:47.732Z,14.70
2023-05-04T12:21:18.920Z,13.57
2023-05-04T12:23:48.035Z,19.80
2023-05-04T12:26:18.993Z,14.85
2023-05-04T12:28:47.769Z,12.98
2023-05-04T12:31:16.235Z,15.07
2023-05-04T12:33:44.302Z,13.50
2023-05-04T12:36:12.440Z,16.98
2023-05-04T12:38:40.286Z,14.77
2023-05-04T12:41:10.980Z,14.02
2023-05-04T12:43:39.243Z,19.00
2023-05-04T12:46:07.789Z,17.73
2023-05-04T12:48:35.829Z,22.30
2023-05-04T12:51:05.255Z,21.38
2023-05-04T12:53:33.579Z,14.20
2023-05-04T12:56:02.631Z,20.50
2023-05-04T12:58:31.417Z,14.55
2023-05-04T13:03:28.242Z,24.58
2023-05-04T13:05:57.801Z,25.85
2023-05-04T13:08:25.973Z,27.80
2023-05-04T13:10:53.981Z,16.05
2023-05-04T13:13:26.401Z,16.83
2023-05-04T13:15:54.805Z,15.65
2023-05-04T13:18:27.538Z,16.58
2023-05-04T13:20:57.058Z,21.45
2023-05-04T13:23:25.354Z,22.75
2023-05-04T13:25:53.798Z,21.02
2023-05-04T13:28:21.734Z,19.50
2023-05-04T13:30:49.835Z,20.33
2023-05-04T13:33:28.977Z,18.30
2023-05-04T13:35:58.821Z,18.83
2023-05-04T13:40:56.291Z,46.95
2023-05-04T13:43:25.578Z,25.40
2023-05-04T13:45:53.904Z,45.92
2023-05-04T13:48:21.729Z,63.17
2023-05-04T13:50:49.798Z,38.00
2023-05-04T13:53:17.787Z,22.13
2023-05-04T13:55:46.350Z,19.98
2023-05-04T13:58:14.359Z,19.98
2023-05-04T14:00:43.529Z,16.52
2023-05-04T14:03:11.827Z,22.40
2023-05-04T14:05:40.192Z,17.77
2023-05-04T14:08:08.269Z,19.65
2023-05-04T14:10:37.658Z,15.63
2023-05-04T14:13:05.838Z,25.08
2023-05-04T14:15:33.980Z,17.48
2023-05-04T14:18:02.514Z,17.67
2023-05-04T14:20:30.634Z,32.30
2023-05-04T14:22:58.630Z,23.77
2023-05-04T14:25:27.013Z,34.50
2023-05-04T14:27:55.032Z,27.30
2023-05-04T14:30:23.145Z,27.95
2023-05-04T14:32:55.402Z,18.13
2023-05-04T14:35:23.590Z,20.38
2023-05-04T14:37:51.881Z,29.95
2023-05-04T14:40:19.926Z,16.70
2023-05-04T14:42:48.232Z,31.45
2023-05-04T14:45:17.415Z,26.70
2023-05-04T14:47:45.715Z,32.30
2023-05-04T14:50:14.045Z,32.60
2023-05-04T14:52:42.318Z,28.60
2023-05-04T14:55:10.527Z,27.77
2023-05-04T14:57:38.614Z,19.27
2023-05-04T15:00:09.106Z,20.98
2023-05-04T15:02:41.808Z,15.40
2023-05-04T15:05:12.769Z,16.85
2023-05-04T15:07:41.215Z,17.17
2023-05-04T15:10:10.626Z,16.17
2023-05-04T15:12:40.502Z,15.15
2023-05-04T15:15:09.460Z,17.08
2023-05-04T15:17:37.994Z,17.08
2023-05-04T15:20:07.945Z,9.80
2023-05-04T15:22:36.717Z,12.10
2023-05-04T15:25:05.896Z,17.05
2023-05-04T15:27:34.448Z,15.88
2023-05-04T15:32:33.089Z,12.77
2023-05-04T15:35:05.955Z,10.65
2023-05-04T15:37:35.270Z,12.07
2023-05-04T15:40:05.006Z,8.25
2023-05-04T15:42:33.809Z,12.68
2023-05-04T15:45:02.356Z,9.23
2023-05-04T15:47:32.385Z,8.85
2023-05-04T15:50:00.974Z,9.07
2023-05-04T15:52:29.399Z,16.77
2023-05-04T15:55:04.235Z,15.18
2023-05-04T15:57:38.073Z,16.92
2023-05-04T16:00:07.879Z,19.92
2023-05-04T16:02:36.508Z,15.43
2023-05-04T16:05:05.188Z,17.63
2023-05-04T16:07:34.554Z,11.38
2023-05-04T16:10:03.220Z,11.02
2023-05-04T16:12:31.675Z,13.95
2023-05-04T16:15:00.143Z,14.32
2023-05-04T16:17:29.414Z,28.70
2023-05-04T16:19:57.942Z,21.90
2023-05-04T16:22:26.301Z,19.23
2023-05-04T16:24:54.913Z,9.57
2023-05-04T16:27:29.220Z,11.27
2023-05-04T16:29:57.957Z,33.10
2023-05-04T16:32:26.311Z,46.78
2023-05-04T16:34:54.981Z,20.55
2023-05-04T16:37:23.344Z,15.50
2023-05-04T16:39:51.843Z,13.43
2023-05-04T16:42:21.627Z,14.90
2023-05-04T16:44:50.461Z,17.10
2023-05-04T16:47:18.970Z,15.15
2023-05-04T16:49:47.299Z,16.35
2023-05-04T16:52:15.932Z,15.80
2023-05-04T16:54:44.297Z,14.23
2023-05-04T16:57:12.781Z,11.18
2023-05-04T16:59:41.504Z,11.50
2023-05-04T17:02:09.931Z,10.52
2023-05-04T17:04:38.369Z,9.70
2023-05-04T17:07:08.770Z,11.57
2023-05-04T17:09:39.193Z,21.10
2023-05-04T17:12:07.582Z,14.98
2023-05-04T17:14:36.059Z,16.02
2023-05-04T17:17:04.710Z,13.50
2023-05-04T17:22:01.722Z,18.10
2023-05-04T17:24:30.310Z,20.25
2023-05-04T17:26:58.996Z,17.52
2023-05-04T17:29:27.430Z,15.48
2023-05-04T17:31:56.144Z,15.07
2023-05-04T17:34:24.501Z,14.02
2023-05-04T17:39:22.535Z,20.63
2023-05-04T17:41:51.407Z,23.85
2023-05-04T17:44:20.317Z,18.48
2023-05-04T17:46:48.844Z,15.77
2023-05-04T17:49:19.634Z,20.35
2023-05-04T17:51:49.647Z,14.27
2023-05-04T17:54:18.091Z,31.90
2023-05-04T17:56:46.708Z,26.00
2023-05-04T17:59:17.108Z,22.40
2023-05-04T18:01:46.305Z,48.33
2023-05-04T18:04:14.612Z,47.95
2023-05-04T18:06:43.359Z,29.27
2023-05-04T18:11:40.416Z,40.75
2023-05-04T18:14:08.922Z,26.25
2023-05-04T18:16:39.603Z,21.58
2023-05-04T18:19:08.493Z,15.10
2023-05-04T18:24:08.091Z,16.40
2023-05-04T18:26:36.700Z,17.85
2023-05-04T18:29:17.971Z,14.95
2023-05-04T18:31:48.828Z,18.38
2023-05-04T18:34:17.589Z,16.13
2023-05-04T18:36:48.032Z,17.98
2023-05-04T18:39:17.882Z,18.48
2023-05-04T18:41:46.562Z,15.63
2023-05-04T18:44:18.444Z,11.40
2023-05-04T18:46:47.183Z,12.88
2023-05-04T18:49:16.054Z,9.90
2023-05-04T18:51:44.600Z,10.93
2023-05-04T18:54:16.170Z,12.43
2023-05-04T18:56:44.991Z,12.38
2023-05-04T18:59:13.299Z,12.88
2023-05-04T19:01:41.889Z,7.95
2023-05-04T19:04:10.452Z,14.50
2023-05-04T19:06:38.568Z,10.13
2023-05-04T19:09:08.207Z,10.15
2023-05-04T19:11:36.535Z,11.50
2023-05-04T19:14:04.616Z,10.88
2023-05-04T19:16:33.003Z,10.02
2023-05-04T19:19:01.088Z,11.23
2023-05-04T19:21:29.778Z,18.70
2023-05-04T19:23:57.878Z,21.33
2023-05-04T19:26:26.081Z,17.05
2023-05-04T19:28:54.103Z,12.65
2023-05-04T19:31:23.013Z,27.73
2023-05-04T19:33:52.448Z,32.28
2023-05-04T19:36:20.546Z,37.63
2023-05-04T19:38:48.979Z,17.33
2023-05-04T19:41:17.599Z,15.38
2023-05-04T19:43:46.170Z,16.80
2023-05-04T19:46:14.652Z,13.18
2023-05-04T19:48:43.971Z,19.85
2023-05-04T19:51:12.678Z,19.58
2023-05-04T19:53:41.068Z,25.40
2023-05-04T19:56:09.303Z,24.30
2023-05-04T19:58:37.942Z,14.25
2023-05-04T20:01:06.045Z,16.30
2023-05-04T20:03:34.025Z,26.83
2023-05-04T20:06:03.845Z,16.55
2023-05-04T20:08:31.897Z,11.50
2023-05-04T20:11:00.216Z,9.30
2023-05-04T20:13:28.454Z,11.32
2023-05-04T20:15:57.059Z,11.50
2023-05-04T20:18:25.455Z,10.60
2023-05-04T20:20:53.636Z,11.85
2023-05-04T20:23:22.527Z,11.35
2023-05-04T20:25:51.379Z,10.85
2023-05-04T20:28:19.380Z,10.70
2023-05-04T20:30:47.455Z,21.80
2023-05-04T20:33:15.351Z,23.73
2023-05-04T20:35:44.469Z,16.65
2023-05-04T20:38:12.785Z,10.80
2023-05-04T20:40:40.823Z,13.32
2023-05-04T20:43:08.737Z,13.23
2023-05-04T20:45:36.715Z,9.45
2023-05-04T20:48:05.004Z,9.38
2023-05-04T20:50:33.243Z,8.68
2023-05-04T20:53:03.957Z,10.65
2023-05-04T20:55:32.154Z,11.52
2023-05-04T20:58:00.250Z,11.55
2023-05-04T21:00:32.989Z,9.85
2023-05-04T21:03:01.877Z,8.98
2023-05-04T21:05:29.841Z,9.75
2023-05-04T21:07:57.828Z,11.13
2023-05-04T21:10:25.773Z,13.52
2023-05-04T21:12:57.734Z,8.60
2023-05-04T21:15:26.818Z,10.07
2023-05-04T21:17:54.834Z,9.93
2023-05-04T21:20:22.925Z,9.00
2023-05-04T21:22:51.007Z,9.35
2023-05-04T21:25:19.049Z,10.30
2023-05-04T21:27:47.084Z,10.00
2023-05-04T21:30:15.657Z,9.82
2023-05-04T21:32:43.924Z,9.20
2023-05-04T21:35:12.051Z,10.48
2023-05-04T21:37:40.272Z,8.88
2023-05-04T21:40:09.378Z,13.75
2023-05-04T21:42:37.501Z,10.00
2023-05-04T21:45:06.518Z,12.48
2023-05-04T21:50:02.373Z,8.80
2023-05-04T21:52:30.433Z,8.95
2023-05-04T21:54:58.360Z,8.60
2023-05-04T21:57:26.599Z,9.50
2023-05-04T21:59:54.519Z,8.25
2023-05-04T22:02:22.379Z,9.20
2023-05-04T22:04:50.320Z,8.77
2023-05-04T22:07:18.355Z,9.35
2023-05-04T22:09:46.164Z,10.73
2023-05-04T22:12:14.062Z,9.05
2023-05-04T22:14:44.057Z,8.93
2023-05-04T22:17:11.951Z,7.82
2023-05-04T22:19:39.878Z,10.25
2023-05-04T22:22:07.681Z,9.35
2023-05-04T22:24:35.984Z,8.93
2023-05-04T22:27:03.991Z,8.63
2023-05-04T22:29:35.128Z,10.15
2023-05-04T22:32:02.980Z,8.85
2023-05-04T22:34:30.920Z,10.05
2023-05-04T22:36:58.736Z,10.18
2023-05-04T22:39:26.685Z,9.35
2023-05-04T22:41:54.614Z,11.50
2023-05-04T22:44:22.417Z,10.85
2023-05-04T22:46:50.250Z,10.90
2023-05-04T22:49:18.398Z,9.60
2023-05-04T22:51:46.329Z,10.48
2023-05-04T22:54:14.231Z,11.63
2023-05-04T22:56:42.107Z,9.65
2023-05-04T22:59:10.025Z,10.20
2023-05-04T23:01:42.738Z,14.50
2023-05-04T23:04:11.652Z,11.13
2023-05-04T23:09:07.144Z,8.52
2023-05-04T23:11:35.044Z,9.13
2023-05-04T23:14:02.990Z,11.02
2023-05-04T23:16:31.239Z,8.80
2023-05-04T23:18:59.524Z,10.00
2023-05-04T23:21:27.542Z,10.90
2023-05-04T23:23:55.510Z,10.68
2023-05-04T23:26:23.963Z,8.88
2023-05-04T23:28:51.996Z,10.40
2023-05-04T23:31:20.136Z,9.43
2023-05-04T23:33:48.079Z,10.13
2023-05-04T23:36:15.896Z,11.82
2023-05-04T23:38:43.791Z,8.98
2023-05-04T23:41:12.740Z,9.57
2023-05-04T23:43:40.762Z,9.75
2023-05-04T23:46:08.815Z,8.95
2023-05-04T23:48:36.606Z,7.97
2023-05-04T23:51:04.937Z,10.23
2023-05-04T23:53:34.052Z,8.75
2023-05-04T23:56:04.269Z,9.35
2023-05-04T23:58:33.805Z,11.52
